sensor_id;sensor_type;location;lat;lon;timestamp;P1;durP1;ratioP1;P2;durP2;ratioP2
66542;SDS011;53395;37.360;-122.046;2023-02-03T00:00:11;1.73;;;0.50;;
66542;SDS011;53395;37.360;-122.046;2023-02-03T00:02:37;1.83;;;0.60;;
66542;SDS011;53395;37.360;-122.046;2023-02-03T00:05:03;3.50;;;0.50;;
66542;SDS011;53395;37.360;-122.046;2023-02-03T00:07:28;2.15;;;0.70;;
66542;SDS011;53395;37.360;-122.046;2023-02-03T00:09:55;1.42;;;0.50;;
66542;SDS011;53395;37.360;-122.046;2023-02-03T00:12:21;1.98;;;0.60;;
66542;SDS011;53395;37.360;-122.046;2023-02-03T00:14:47;3.15;;;0.60;;
66542;SDS011;53395;37.360;-122.046;2023-02-03T00:17:13;2.55;;;0.60;;
66542;SDS011;53395;37.360;-122.046;2023-02-03T00:19:39;3.13;;;0.63;;
66542;SDS011;53395;37.360;-122.046;2023-02-03T00:22:05;2.10;;;0.57;;
66542;SDS011;53395;37.360;-122.046;2023-02-03T00:24:31;3.28;;;0.45;;
66542;SDS011;53395;37.360;-122.046;2023-02-03T00:26:57;4.55;;;1.00;;
66542;SDS011;53395;37.360;-122.046;2023-02-03T00:29:23;3.95;;;0.70;;
66542;SDS011;53395;37.360;-122.046;2023-02-03T00:31:51;4.25;;;0.77;;
66542;SDS011;53395;37.360;-122.046;2023-02-03T00:34:17;4.15;;;0.68;;
66542;SDS011;53395;37.360;-122.046;2023-02-03T00:36:43;3.17;;;0.57;;
66542;SDS011;53395;37.360;-122.046;2023-02-03T00:39:13;1.85;;;0.65;;
66542;SDS011;53395;37.360;-122.046;2023-02-03T00:41:38;3.45;;;0.57;;
66542;SDS011;53395;37.360;-122.046;2023-02-03T00:44:04;3.13;;;0.70;;
66542;SDS011;53395;37.360;-122.046;2023-02-03T00:46:30;6.15;;;0.80;;
66542;SDS011;53395;37.360;-122.046;2023-02-03T00:48:56;3.85;;;0.65;;
66542;SDS011;53395;37.360;-122.046;2023-02-03T00:51:22;3.90;;;0.60;;
66542;SDS011;53395;37.360;-122.046;2023-02-03T00:53:48;1.75;;;0.70;;
66542;SDS011;53395;37.360;-122.046;2023-02-03T00:56:14;3.13;;;0.95;;
66542;SDS011;53395;37.360;-122.046;2023-02-03T00:58:40;3.00;;;0.80;;
66542;SDS011;53395;37.360;-122.046;2023-02-03T01:01:06;3.40;;;0.70;;
66542;SDS011;53395;37.360;-122.046;2023-02-03T01:03:32;4.88;;;0.88;;
66542;SDS011;53395;37.360;-122.046;2023-02-03T01:06:08;3.13;;;0.75;;
66542;SDS011;53395;37.360;-122.046;2023-02-03T01:08:34;2.83;;;0.85;;
66542;SDS011;53395;37.360;-122.046;2023-02-03T01:11:04;2.25;;;0.70;;
66542;SDS011;53395;37.360;-122.046;2023-02-03T01:13:30;4.75;;;0.85;;
66542;SDS011;53395;37.360;-122.046;2023-02-03T01:15:56;5.60;;;0.73;;
66542;SDS011;53395;37.360;-122.046;2023-02-03T01:18:22;3.55;;;0.70;;
66542;SDS011;53395;37.360;-122.046;2023-02-03T01:20:48;4.93;;;0.90;;
66542;SDS011;53395;37.360;-122.046;2023-02-03T01:23:13;4.05;;;0.82;;
66542;SDS011;53395;37.360;-122.046;2023-02-03T01:25:39;2.53;;;0.95;;
66542;SDS011;53395;37.360;-122.046;2023-02-03T01:28:05;4.85;;;0.95;;
66542;SDS011;53395;37.360;-122.046;2023-02-03T01:30:31;5.25;;;0.60;;
66542;SDS011;53395;37.360;-122.046;2023-02-03T01:32:57;3.15;;;0.98;;
66542;SDS011;53395;37.360;-122.046;2023-02-03T01:35:23;4.53;;;0.90;;
66542;SDS011;53395;37.360;-122.046;2023-02-03T01:37:49;4.10;;;0.88;;
66542;SDS011;53395;37.360;-122.046;2023-02-03T01:40:15;5.25;;;0.73;;
66542;SDS011;53395;37.360;-122.046;2023-02-03T01:42:40;4.90;;;1.15;;
66542;SDS011;53395;37.360;-122.046;2023-02-03T01:45:07;2.40;;;0.60;;
66542;SDS011;53395;37.360;-122.046;2023-02-03T01:47:33;4.85;;;0.75;;
66542;SDS011;53395;37.360;-122.046;2023-02-03T01:50:06;4.70;;;1.15;;
66542;SDS011;53395;37.360;-122.046;2023-02-03T01:52:33;2.35;;;0.70;;
66542;SDS011;53395;37.360;-122.046;2023-02-03T01:57:28;2.83;;;0.70;;
66542;SDS011;53395;37.360;-122.046;2023-02-03T01:59:54;3.13;;;0.60;;
66542;SDS011;53395;37.360;-122.046;2023-02-03T02:02:22;5.40;;;0.82;;
66542;SDS011;53395;37.360;-122.046;2023-02-03T02:04:56;3.33;;;0.98;;
66542;SDS011;53395;37.360;-122.046;2023-02-03T02:07:23;2.13;;;0.70;;
66542;SDS011;53395;37.360;-122.046;2023-02-03T02:09:50;4.90;;;0.80;;
66542;SDS011;53395;37.360;-122.046;2023-02-03T02:12:16;1.95;;;0.70;;
66542;SDS011;53395;37.360;-122.046;2023-02-03T02:14:41;1.48;;;0.52;;
66542;SDS011;53395;37.360;-122.046;2023-02-03T02:22:22;3.15;;;0.70;;
66542;SDS011;53395;37.360;-122.046;2023-02-03T02:28:35;3.05;;;0.80;;
66542;SDS011;53395;37.360;-122.046;2023-02-03T02:33:17;4.40;;;0.80;;
66542;SDS011;53395;37.360;-122.046;2023-02-03T02:38:19;1.25;;;0.50;;
66542;SDS011;53395;37.360;-122.046;2023-02-03T02:45:55;2.80;;;0.70;;
66542;SDS011;53395;37.360;-122.046;2023-02-03T02:48:28;4.47;;;0.82;;
66542;SDS011;53395;37.360;-122.046;2023-02-03T02:50:56;1.60;;;0.70;;
66542;SDS011;53395;37.360;-122.046;2023-02-03T02:53:25;2.40;;;0.65;;
66542;SDS011;53395;37.360;-122.046;2023-02-03T02:55:52;3.53;;;0.60;;
66542;SDS011;53395;37.360;-122.046;2023-02-03T02:58:20;1.70;;;0.47;;
66542;SDS011;53395;37.360;-122.046;2023-02-03T03:00:47;1.63;;;0.63;;
66542;SDS011;53395;37.360;-122.046;2023-02-03T03:03:20;2.70;;;0.60;;
66542;SDS011;53395;37.360;-122.046;2023-02-03T03:08:12;2.25;;;0.60;;
66542;SDS011;53395;37.360;-122.046;2023-02-03T03:10:39;3.47;;;1.05;;
66542;SDS011;53395;37.360;-122.046;2023-02-03T03:13:06;2.38;;;0.80;;
66542;SDS011;53395;37.360;-122.046;2023-02-03T03:15:33;3.38;;;0.85;;
66542;SDS011;53395;37.360;-122.046;2023-02-03T03:18:03;5.97;;;1.00;;
66542;SDS011;53395;37.360;-122.046;2023-02-03T03:20:31;3.50;;;0.60;;
66542;SDS011;53395;37.360;-122.046;2023-02-03T03:22:59;2.33;;;0.70;;
66542;SDS011;53395;37.360;-122.046;2023-02-03T03:25:30;3.10;;;0.77;;
66542;SDS011;53395;37.360;-122.046;2023-02-03T03:28:01;2.63;;;0.60;;
66542;SDS011;53395;37.360;-122.046;2023-02-03T03:30:36;3.47;;;0.63;;
66542;SDS011;53395;37.360;-122.046;2023-02-03T03:33:03;4.53;;;0.80;;
66542;SDS011;53395;37.360;-122.046;2023-02-03T03:37:57;2.75;;;0.60;;
66542;SDS011;53395;37.360;-122.046;2023-02-03T03:40:26;2.53;;;0.65;;
66542;SDS011;53395;37.360;-122.046;2023-02-03T03:42:54;2.30;;;0.60;;
66542;SDS011;53395;37.360;-122.046;2023-02-03T03:47:56;1.67;;;0.50;;
66542;SDS011;53395;37.360;-122.046;2023-02-03T03:50:24;1.88;;;0.40;;
66542;SDS011;53395;37.360;-122.046;2023-02-03T03:52:51;0.68;;;0.30;;
66542;SDS011;53395;37.360;-122.046;2023-02-03T03:55:18;1.52;;;0.50;;
66542;SDS011;53395;37.360;-122.046;2023-02-03T04:00:11;4.85;;;0.65;;
66542;SDS011;53395;37.360;-122.046;2023-02-03T04:02:39;2.95;;;0.55;;
66542;SDS011;53395;37.360;-122.046;2023-02-03T04:05:07;2.35;;;0.57;;
66542;SDS011;53395;37.360;-122.046;2023-02-03T04:07:37;5.38;;;0.60;;
66542;SDS011;53395;37.360;-122.046;2023-02-03T04:10:04;1.55;;;0.60;;
66542;SDS011;53395;37.360;-122.046;2023-02-03T04:12:31;2.72;;;0.50;;
66542;SDS011;53395;37.360;-122.046;2023-02-03T04:14:57;3.80;;;0.73;;
66542;SDS011;53395;37.360;-122.046;2023-02-03T04:17:23;1.88;;;0.60;;
66542;SDS011;53395;37.360;-122.046;2023-02-03T04:19:49;2.85;;;0.73;;
66542;SDS011;53395;37.360;-122.046;2023-02-03T04:22:15;4.05;;;0.95;;
66542;SDS011;53395;37.360;-122.046;2023-02-03T04:24:41;1.75;;;0.40;;
66542;SDS011;53395;37.360;-122.046;2023-02-03T04:27:07;5.35;;;0.80;;
66542;SDS011;53395;37.360;-122.046;2023-02-03T04:29:33;4.57;;;0.70;;
66542;SDS011;53395;37.360;-122.046;2023-02-03T04:31:58;3.42;;;0.70;;
66542;SDS011;53395;37.360;-122.046;2023-02-03T04:34:24;3.67;;;0.85;;
66542;SDS011;53395;37.360;-122.046;2023-02-03T04:36:50;2.00;;;0.63;;
66542;SDS011;53395;37.360;-122.046;2023-02-03T04:39:16;5.32;;;1.20;;
66542;SDS011;53395;37.360;-122.046;2023-02-03T04:41:42;4.63;;;0.90;;
66542;SDS011;53395;37.360;-122.046;2023-02-03T04:44:08;2.70;;;0.52;;
66542;SDS011;53395;37.360;-122.046;2023-02-03T04:46:34;3.03;;;0.50;;
66542;SDS011;53395;37.360;-122.046;2023-02-03T04:49:00;4.95;;;0.90;;
66542;SDS011;53395;37.360;-122.046;2023-02-03T04:51:26;3.35;;;0.80;;
66542;SDS011;53395;37.360;-122.046;2023-02-03T04:53:52;3.35;;;0.70;;
66542;SDS011;53395;37.360;-122.046;2023-02-03T04:56:18;4.68;;;0.80;;
66542;SDS011;53395;37.360;-122.046;2023-02-03T04:58:44;2.78;;;0.70;;
66542;SDS011;53395;37.360;-122.046;2023-02-03T05:01:10;3.53;;;0.60;;
66542;SDS011;53395;37.360;-122.046;2023-02-03T05:03:36;4.28;;;0.80;;
66542;SDS011;53395;37.360;-122.046;2023-02-03T05:06:02;3.47;;;0.82;;
66542;SDS011;53395;37.360;-122.046;2023-02-03T05:08:28;3.28;;;0.88;;
66542;SDS011;53395;37.360;-122.046;2023-02-03T05:10:54;2.85;;;0.60;;
66542;SDS011;53395;37.360;-122.046;2023-02-03T05:13:20;2.28;;;0.50;;
66542;SDS011;53395;37.360;-122.046;2023-02-03T05:15:46;4.93;;;0.85;;
66542;SDS011;53395;37.360;-122.046;2023-02-03T05:18:12;9.80;;;1.17;;
66542;SDS011;53395;37.360;-122.046;2023-02-03T05:20:38;5.40;;;0.73;;
66542;SDS011;53395;37.360;-122.046;2023-02-03T05:23:04;5.28;;;1.05;;
66542;SDS011;53395;37.360;-122.046;2023-02-03T05:25:30;6.45;;;1.17;;
66542;SDS011;53395;37.360;-122.046;2023-02-03T05:27:56;4.70;;;0.90;;
66542;SDS011;53395;37.360;-122.046;2023-02-03T05:30:22;10.02;;;1.40;;
66542;SDS011;53395;37.360;-122.046;2023-02-03T05:32:48;9.23;;;1.27;;
66542;SDS011;53395;37.360;-122.046;2023-02-03T05:35:16;9.07;;;0.95;;
66542;SDS011;53395;37.360;-122.046;2023-02-03T05:37:43;3.85;;;0.70;;
66542;SDS011;53395;37.360;-122.046;2023-02-03T05:40:10;1.92;;;0.60;;
66542;SDS011;53395;37.360;-122.046;2023-02-03T05:42:54;2.13;;;0.60;;
66542;SDS011;53395;37.360;-122.046;2023-02-03T05:45:20;3.10;;;0.80;;
66542;SDS011;53395;37.360;-122.046;2023-02-03T05:47:46;2.47;;;0.70;;
66542;SDS011;53395;37.360;-122.046;2023-02-03T05:50:12;5.93;;;1.02;;
66542;SDS011;53395;37.360;-122.046;2023-02-03T05:52:38;1.35;;;0.60;;
66542;SDS011;53395;37.360;-122.046;2023-02-03T05:55:04;4.75;;;0.90;;
66542;SDS011;53395;37.360;-122.046;2023-02-03T05:57:30;3.35;;;0.70;;
66542;SDS011;53395;37.360;-122.046;2023-02-03T05:59:56;3.17;;;0.65;;
66542;SDS011;53395;37.360;-122.046;2023-02-03T06:02:22;2.47;;;0.70;;
66542;SDS011;53395;37.360;-122.046;2023-02-03T06:04:47;2.20;;;0.70;;
66542;SDS011;53395;37.360;-122.046;2023-02-03T06:07:13;4.97;;;0.77;;
66542;SDS011;53395;37.360;-122.046;2023-02-03T06:09:39;5.65;;;0.88;;
66542;SDS011;53395;37.360;-122.046;2023-02-03T06:12:05;4.78;;;0.80;;
66542;SDS011;53395;37.360;-122.046;2023-02-03T06:14:31;4.93;;;0.65;;
66542;SDS011;53395;37.360;-122.046;2023-02-03T06:16:57;3.63;;;0.60;;
66542;SDS011;53395;37.360;-122.046;2023-02-03T06:19:22;5.15;;;0.77;;
66542;SDS011;53395;37.360;-122.046;2023-02-03T06:21:48;1.30;;;0.50;;
66542;SDS011;53395;37.360;-122.046;2023-02-03T06:24:14;2.25;;;0.57;;
66542;SDS011;53395;37.360;-122.046;2023-02-03T06:26:40;1.40;;;0.60;;
66542;SDS011;53395;37.360;-122.046;2023-02-03T06:29:06;4.30;;;0.60;;
66542;SDS011;53395;37.360;-122.046;2023-02-03T06:31:32;3.05;;;0.63;;
66542;SDS011;53395;37.360;-122.046;2023-02-03T06:33:57;2.45;;;0.70;;
66542;SDS011;53395;37.360;-122.046;2023-02-03T06:36:26;1.75;;;0.52;;
66542;SDS011;53395;37.360;-122.046;2023-02-03T06:38:52;1.85;;;0.50;;
66542;SDS011;53395;37.360;-122.046;2023-02-03T06:41:18;2.13;;;0.50;;
66542;SDS011;53395;37.360;-122.046;2023-02-03T06:43:44;2.08;;;0.50;;
66542;SDS011;53395;37.360;-122.046;2023-02-03T06:46:10;3.58;;;0.68;;
66542;SDS011;53395;37.360;-122.046;2023-02-03T06:51:02;4.30;;;0.82;;
66542;SDS011;53395;37.360;-122.046;2023-02-03T06:53:29;2.22;;;0.47;;
66542;SDS011;53395;37.360;-122.046;2023-02-03T06:55:55;1.63;;;0.60;;
66542;SDS011;53395;37.360;-122.046;2023-02-03T06:58:21;2.72;;;0.70;;
66542;SDS011;53395;37.360;-122.046;2023-02-03T07:00:47;2.80;;;0.75;;
66542;SDS011;53395;37.360;-122.046;2023-02-03T07:03:13;5.82;;;0.60;;
66542;SDS011;53395;37.360;-122.046;2023-02-03T07:05:39;1.55;;;0.40;;
66542;SDS011;53395;37.360;-122.046;2023-02-03T07:08:05;4.32;;;0.70;;
66542;SDS011;53395;37.360;-122.046;2023-02-03T07:10:30;5.10;;;0.50;;
66542;SDS011;53395;37.360;-122.046;2023-02-03T07:13:00;3.72;;;0.60;;
66542;SDS011;53395;37.360;-122.046;2023-02-03T07:15:26;2.67;;;0.60;;
66542;SDS011;53395;37.360;-122.046;2023-02-03T07:17:52;2.72;;;0.60;;
66542;SDS011;53395;37.360;-122.046;2023-02-03T07:20:19;1.85;;;0.57;;
66542;SDS011;53395;37.360;-122.046;2023-02-03T07:22:49;3.55;;;0.60;;
66542;SDS011;53395;37.360;-122.046;2023-02-03T07:25:15;2.30;;;0.60;;
66542;SDS011;53395;37.360;-122.046;2023-02-03T07:27:41;2.67;;;0.43;;
66542;SDS011;53395;37.360;-122.046;2023-02-03T07:30:07;2.47;;;0.47;;
66542;SDS011;53395;37.360;-122.046;2023-02-03T07:32:33;2.03;;;0.70;;
66542;SDS011;53395;37.360;-122.046;2023-02-03T07:34:59;2.08;;;0.57;;
66542;SDS011;53395;37.360;-122.046;2023-02-03T07:37:25;1.38;;;0.68;;
66542;SDS011;53395;37.360;-122.046;2023-02-03T07:39:52;1.27;;;0.50;;
66542;SDS011;53395;37.360;-122.046;2023-02-03T07:42:17;1.88;;;0.60;;
66542;SDS011;53395;37.360;-122.046;2023-02-03T07:44:43;1.63;;;0.40;;
66542;SDS011;53395;37.360;-122.046;2023-02-03T07:47:09;2.95;;;0.60;;
66542;SDS011;53395;37.360;-122.046;2023-02-03T07:49:35;1.30;;;0.50;;
66542;SDS011;53395;37.360;-122.046;2023-02-03T07:52:01;2.00;;;0.52;;
66542;SDS011;53395;37.360;-122.046;2023-02-03T07:54:27;1.27;;;0.47;;
66542;SDS011;53395;37.360;-122.046;2023-02-03T07:56:54;1.85;;;0.70;;
66542;SDS011;53395;37.360;-122.046;2023-02-03T07:59:20;2.03;;;0.45;;
66542;SDS011;53395;37.360;-122.046;2023-02-03T08:01:46;1.63;;;0.50;;
66542;SDS011;53395;37.360;-122.046;2023-02-03T08:04:11;2.15;;;0.75;;
66542;SDS011;53395;37.360;-122.046;2023-02-03T08:06:41;1.73;;;0.40;;
66542;SDS011;53395;37.360;-122.046;2023-02-03T08:11:32;1.15;;;0.35;;
66542;SDS011;53395;37.360;-122.046;2023-02-03T08:13:58;1.67;;;0.50;;
66542;SDS011;53395;37.360;-122.046;2023-02-03T08:16:24;1.50;;;0.45;;
66542;SDS011;53395;37.360;-122.046;2023-02-03T08:18:50;1.48;;;0.50;;
66542;SDS011;53395;37.360;-122.046;2023-02-03T08:21:16;1.05;;;0.38;;
66542;SDS011;53395;37.360;-122.046;2023-02-03T08:23:42;1.25;;;0.38;;
66542;SDS011;53395;37.360;-122.046;2023-02-03T08:26:08;0.82;;;0.40;;
66542;SDS011;53395;37.360;-122.046;2023-02-03T08:28:34;1.05;;;0.35;;
66542;SDS011;53395;37.360;-122.046;2023-02-03T08:31:00;1.30;;;0.40;;
66542;SDS011;53395;37.360;-122.046;2023-02-03T08:33:26;2.00;;;0.43;;
66542;SDS011;53395;37.360;-122.046;2023-02-03T08:35:53;1.45;;;0.40;;
66542;SDS011;53395;37.360;-122.046;2023-02-03T08:38:18;2.70;;;0.43;;
66542;SDS011;53395;37.360;-122.046;2023-02-03T08:40:46;1.52;;;0.40;;
66542;SDS011;53395;37.360;-122.046;2023-02-03T08:43:12;2.25;;;0.50;;
66542;SDS011;53395;37.360;-122.046;2023-02-03T08:45:38;1.42;;;0.47;;
66542;SDS011;53395;37.360;-122.046;2023-02-03T08:48:04;3.50;;;0.40;;
66542;SDS011;53395;37.360;-122.046;2023-02-03T08:50:30;2.25;;;0.52;;
66542;SDS011;53395;37.360;-122.046;2023-02-03T08:52:56;2.17;;;0.40;;
66542;SDS011;53395;37.360;-122.046;2023-02-03T08:55:22;1.52;;;0.50;;
66542;SDS011;53395;37.360;-122.046;2023-02-03T08:57:48;1.20;;;0.60;;
66542;SDS011;53395;37.360;-122.046;2023-02-03T09:00:14;2.58;;;0.43;;
66542;SDS011;53395;37.360;-122.046;2023-02-03T09:02:40;1.60;;;0.50;;
66542;SDS011;53395;37.360;-122.046;2023-02-03T09:05:06;1.40;;;0.40;;
66542;SDS011;53395;37.360;-122.046;2023-02-03T09:07:32;1.30;;;0.40;;
66542;SDS011;53395;37.360;-122.046;2023-02-03T09:09:58;1.50;;;0.35;;
66542;SDS011;53395;37.360;-122.046;2023-02-03T09:12:24;1.63;;;0.32;;
66542;SDS011;53395;37.360;-122.046;2023-02-03T09:14:50;2.55;;;0.30;;
66542;SDS011;53395;37.360;-122.046;2023-02-03T09:17:16;2.15;;;0.70;;
66542;SDS011;53395;37.360;-122.046;2023-02-03T09:19:41;1.50;;;0.40;;
66542;SDS011;53395;37.360;-122.046;2023-02-03T09:22:07;0.88;;;0.40;;
66542;SDS011;53395;37.360;-122.046;2023-02-03T09:24:33;2.35;;;0.50;;
66542;SDS011;53395;37.360;-122.046;2023-02-03T09:26:59;1.60;;;0.50;;
66542;SDS011;53395;37.360;-122.046;2023-02-03T09:29:25;2.53;;;0.50;;
66542;SDS011;53395;37.360;-122.046;2023-02-03T09:31:51;0.82;;;0.30;;
66542;SDS011;53395;37.360;-122.046;2023-02-03T09:34:18;0.55;;;0.30;;
66542;SDS011;53395;37.360;-122.046;2023-02-03T09:36:45;1.13;;;0.40;;
66542;SDS011;53395;37.360;-122.046;2023-02-03T09:39:11;2.47;;;0.77;;
66542;SDS011;53395;37.360;-122.046;2023-02-03T09:44:15;0.77;;;0.30;;
66542;SDS011;53395;37.360;-122.046;2023-02-03T09:47:09;2.42;;;0.50;;
66542;SDS011;53395;37.360;-122.046;2023-02-03T09:49:42;2.33;;;0.55;;
66542;SDS011;53395;37.360;-122.046;2023-02-03T09:57:00;4.57;;;0.60;;
66542;SDS011;53395;37.360;-122.046;2023-02-03T09:59:29;0.90;;;0.40;;
66542;SDS011;53395;37.360;-122.046;2023-02-03T10:06:53;1.38;;;0.30;;
66542;SDS011;53395;37.360;-122.046;2023-02-03T10:17:11;1.30;;;0.30;;
66542;SDS011;53395;37.360;-122.046;2023-02-03T10:19:57;1.10;;;0.30;;
66542;SDS011;53395;37.360;-122.046;2023-02-03T10:22:26;1.90;;;0.40;;
66542;SDS011;53395;37.360;-122.046;2023-02-03T10:24:54;1.88;;;0.47;;
66542;SDS011;53395;37.360;-122.046;2023-02-03T10:27:22;1.25;;;0.40;;
66542;SDS011;53395;37.360;-122.046;2023-02-03T10:32:14;1.25;;;0.30;;
66542;SDS011;53395;37.360;-122.046;2023-02-03T10:34:41;2.42;;;0.30;;
66542;SDS011;53395;37.360;-122.046;2023-02-03T10:42:08;2.22;;;0.43;;
66542;SDS011;53395;37.360;-122.046;2023-02-03T10:44:35;2.35;;;0.50;;
66542;SDS011;53395;37.360;-122.046;2023-02-03T10:47:09;2.00;;;0.38;;
66542;SDS011;53395;37.360;-122.046;2023-02-03T10:49:39;1.63;;;0.35;;
66542;SDS011;53395;37.360;-122.046;2023-02-03T10:52:07;1.00;;;0.30;;
66542;SDS011;53395;37.360;-122.046;2023-02-03T10:54:48;1.33;;;0.30;;
66542;SDS011;53395;37.360;-122.046;2023-02-03T10:57:14;1.33;;;0.30;;
66542;SDS011;53395;37.360;-122.046;2023-02-03T10:59:41;3.13;;;0.55;;
66542;SDS011;53395;37.360;-122.046;2023-02-03T11:02:29;2.40;;;0.32;;
66542;SDS011;53395;37.360;-122.046;2023-02-03T11:05:08;1.23;;;0.40;;
66542;SDS011;53395;37.360;-122.046;2023-02-03T11:07:35;1.58;;;0.47;;
66542;SDS011;53395;37.360;-122.046;2023-02-03T11:10:01;0.80;;;0.30;;
66542;SDS011;53395;37.360;-122.046;2023-02-03T11:12:27;6.05;;;0.50;;
66542;SDS011;53395;37.360;-122.046;2023-02-03T11:14:53;1.10;;;0.40;;
66542;SDS011;53395;37.360;-122.046;2023-02-03T11:17:20;1.35;;;0.47;;
66542;SDS011;53395;37.360;-122.046;2023-02-03T11:19:55;3.17;;;0.40;;
66542;SDS011;53395;37.360;-122.046;2023-02-03T11:22:30;1.63;;;0.40;;
66542;SDS011;53395;37.360;-122.046;2023-02-03T11:24:57;1.77;;;0.38;;
66542;SDS011;53395;37.360;-122.046;2023-02-03T11:27:23;1.88;;;0.35;;
66542;SDS011;53395;37.360;-122.046;2023-02-03T11:32:36;1.10;;;0.40;;
66542;SDS011;53395;37.360;-122.046;2023-02-03T11:35:13;1.45;;;0.30;;
66542;SDS011;53395;37.360;-122.046;2023-02-03T11:37:41;1.73;;;0.40;;
66542;SDS011;53395;37.360;-122.046;2023-02-03T11:42:36;1.45;;;0.40;;
66542;SDS011;53395;37.360;-122.046;2023-02-03T11:45:12;1.08;;;0.30;;
66542;SDS011;53395;37.360;-122.046;2023-02-03T11:47:42;0.70;;;0.30;;
66542;SDS011;53395;37.360;-122.046;2023-02-03T11:52:56;1.40;;;0.30;;
66542;SDS011;53395;37.360;-122.046;2023-02-03T11:58:18;1.70;;;0.50;;
66542;SDS011;53395;37.360;-122.046;2023-02-03T12:00:51;4.50;;;0.57;;
66542;SDS011;53395;37.360;-122.046;2023-02-03T12:03:26;2.65;;;0.40;;
66542;SDS011;53395;37.360;-122.046;2023-02-03T12:08:29;1.85;;;0.52;;
66542;SDS011;53395;37.360;-122.046;2023-02-03T12:16:37;2.75;;;0.65;;
66542;SDS011;53395;37.360;-122.046;2023-02-03T12:25:09;4.25;;;0.50;;
66542;SDS011;53395;37.360;-122.046;2023-02-03T12:28:00;1.50;;;0.40;;
66542;SDS011;53395;37.360;-122.046;2023-02-03T12:30:34;3.75;;;0.60;;
66542;SDS011;53395;37.360;-122.046;2023-02-03T12:33:05;3.42;;;0.40;;
66542;SDS011;53395;37.360;-122.046;2023-02-03T12:35:36;2.13;;;0.38;;
66542;SDS011;53395;37.360;-122.046;2023-02-03T12:38:09;1.15;;;0.30;;
66542;SDS011;53395;37.360;-122.046;2023-02-03T12:40:45;2.05;;;0.40;;
66542;SDS011;53395;37.360;-122.046;2023-02-03T12:43:20;2.88;;;0.40;;
66542;SDS011;53395;37.360;-122.046;2023-02-03T12:45:53;2.17;;;0.45;;
66542;SDS011;53395;37.360;-122.046;2023-02-03T12:48:24;1.67;;;0.30;;
66542;SDS011;53395;37.360;-122.046;2023-02-03T12:51:00;2.03;;;0.50;;
66542;SDS011;53395;37.360;-122.046;2023-02-03T12:53:30;2.55;;;0.50;;
66542;SDS011;53395;37.360;-122.046;2023-02-03T12:56:05;3.05;;;0.50;;
66542;SDS011;53395;37.360;-122.046;2023-02-03T12:58:39;4.07;;;0.70;;
66542;SDS011;53395;37.360;-122.046;2023-02-03T13:01:25;3.60;;;0.50;;
66542;SDS011;53395;37.360;-122.046;2023-02-03T13:04:05;5.28;;;0.70;;
66542;SDS011;53395;37.360;-122.046;2023-02-03T13:12:00;1.42;;;0.35;;
66542;SDS011;53395;37.360;-122.046;2023-02-03T13:17:00;1.75;;;0.60;;
66542;SDS011;53395;37.360;-122.046;2023-02-03T13:19:28;6.18;;;0.60;;
66542;SDS011;53395;37.360;-122.046;2023-02-03T13:21:55;2.08;;;0.57;;
66542;SDS011;53395;37.360;-122.046;2023-02-03T13:24:24;2.72;;;0.55;;
66542;SDS011;53395;37.360;-122.046;2023-02-03T13:26:55;1.45;;;0.45;;
66542;SDS011;53395;37.360;-122.046;2023-02-03T13:40:27;2.42;;;0.47;;
66542;SDS011;53395;37.360;-122.046;2023-02-03T13:42:52;2.22;;;0.40;;
66542;SDS011;53395;37.360;-122.046;2023-02-03T13:47:46;1.25;;;0.40;;
66542;SDS011;53395;37.360;-122.046;2023-02-03T13:50:21;2.20;;;0.63;;
66542;SDS011;53395;37.360;-122.046;2023-02-03T13:52:58;2.58;;;0.60;;
66542;SDS011;53395;37.360;-122.046;2023-02-03T13:57:51;4.63;;;0.65;;
66542;SDS011;53395;37.360;-122.046;2023-02-03T14:03:01;2.05;;;0.50;;
66542;SDS011;53395;37.360;-122.046;2023-02-03T14:11:30;1.77;;;0.40;;
66542;SDS011;53395;37.360;-122.046;2023-02-03T14:13:33;0.52;;;0.30;;
66542;SDS011;53395;37.360;-122.046;2023-02-03T14:18:46;1.13;;;0.40;;
66542;SDS011;53395;37.360;-122.046;2023-02-03T14:21:19;0.82;;;0.30;;
66542;SDS011;53395;37.360;-122.046;2023-02-03T14:23:47;1.90;;;0.47;;
66542;SDS011;53395;37.360;-122.046;2023-02-03T14:26:14;4.10;;;0.60;;
66542;SDS011;53395;37.360;-122.046;2023-02-03T14:28:42;6.68;;;0.90;;
66542;SDS011;53395;37.360;-122.046;2023-02-03T14:31:13;2.85;;;0.60;;
66542;SDS011;53395;37.360;-122.046;2023-02-03T14:38:51;0.65;;;0.30;;
66542;SDS011;53395;37.360;-122.046;2023-02-03T14:41:18;2.92;;;0.60;;
66542;SDS011;53395;37.360;-122.046;2023-02-03T14:43:52;6.40;;;1.15;;
66542;SDS011;53395;37.360;-122.046;2023-02-03T14:47:08;0.95;;;0.40;;
66542;SDS011;53395;37.360;-122.046;2023-02-03T14:57:00;1.63;;;0.50;;
66542;SDS011;53395;37.360;-122.046;2023-02-03T15:02:16;1.50;;;0.40;;
66542;SDS011;53395;37.360;-122.046;2023-02-03T15:04:43;2.05;;;0.57;;
66542;SDS011;53395;37.360;-122.046;2023-02-03T15:07:34;2.47;;;0.57;;
66542;SDS011;53395;37.360;-122.046;2023-02-03T15:10:00;1.60;;;0.40;;
66542;SDS011;53395;37.360;-122.046;2023-02-03T15:12:26;1.77;;;0.50;;
66542;SDS011;53395;37.360;-122.046;2023-02-03T15:14:53;1.48;;;0.50;;
66542;SDS011;53395;37.360;-122.046;2023-02-03T15:17:36;1.38;;;0.30;;
66542;SDS011;53395;37.360;-122.046;2023-02-03T15:20:14;3.70;;;0.73;;
66542;SDS011;53395;37.360;-122.046;2023-02-03T15:22:40;1.58;;;0.40;;
66542;SDS011;53395;37.360;-122.046;2023-02-03T15:25:10;2.97;;;0.80;;
66542;SDS011;53395;37.360;-122.046;2023-02-03T15:27:40;4.00;;;0.63;;
66542;SDS011;53395;37.360;-122.046;2023-02-03T15:35:29;2.92;;;0.65;;
66542;SDS011;53395;37.360;-122.046;2023-02-03T15:37:57;6.65;;;0.70;;
66542;SDS011;53395;37.360;-122.046;2023-02-03T15:40:36;3.45;;;0.90;;
66542;SDS011;53395;37.360;-122.046;2023-02-03T15:43:09;4.35;;;0.65;;
66542;SDS011;53395;37.360;-122.046;2023-02-03T15:45:40;3.78;;;0.60;;
66542;SDS011;53395;37.360;-122.046;2023-02-03T15:50:42;5.68;;;0.90;;
66542;SDS011;53395;37.360;-122.046;2023-02-03T15:53:17;5.88;;;0.88;;
66542;SDS011;53395;37.360;-122.046;2023-02-03T15:55:48;4.93;;;1.00;;
66542;SDS011;53395;37.360;-122.046;2023-02-03T15:58:16;4.50;;;1.25;;
66542;SDS011;53395;37.360;-122.046;2023-02-03T16:00:43;6.40;;;1.10;;
66542;SDS011;53395;37.360;-122.046;2023-02-03T16:03:14;4.63;;;1.02;;
66542;SDS011;53395;37.360;-122.046;2023-02-03T16:05:40;8.77;;;1.50;;
66542;SDS011;53395;37.360;-122.046;2023-02-03T16:08:33;3.97;;;1.27;;
66542;SDS011;53395;37.360;-122.046;2023-02-03T16:11:00;6.57;;;1.30;;
66542;SDS011;53395;37.360;-122.046;2023-02-03T16:13:27;5.70;;;1.40;;
66542;SDS011;53395;37.360;-122.046;2023-02-03T16:15:58;13.93;;;1.40;;
66542;SDS011;53395;37.360;-122.046;2023-02-03T16:18:24;7.20;;;1.50;;
66542;SDS011;53395;37.360;-122.046;2023-02-03T16:20:50;5.28;;;1.48;;
66542;SDS011;53395;37.360;-122.046;2023-02-03T16:25:43;3.50;;;1.30;;
66542;SDS011;53395;37.360;-122.046;2023-02-03T16:28:25;3.70;;;1.13;;
66542;SDS011;53395;37.360;-122.046;2023-02-03T16:31:12;3.00;;;1.23;;
66542;SDS011;53395;37.360;-122.046;2023-02-03T16:33:59;4.53;;;1.25;;
66542;SDS011;53395;37.360;-122.046;2023-02-03T16:36:43;3.05;;;1.35;;
66542;SDS011;53395;37.360;-122.046;2023-02-03T16:39:27;4.38;;;1.75;;
66542;SDS011;53395;37.360;-122.046;2023-02-03T16:42:16;4.60;;;1.23;;
66542;SDS011;53395;37.360;-122.046;2023-02-03T16:45:00;3.13;;;1.10;;